createdAt,value
2018-09-23T00:00:20.950Z,1001.93
2018-09-23T00:01:20.937Z,1001.86
2018-09-23T00:02:20.934Z,1001.89
2018-09-23T00:03:20.919Z,1001.89
2018-09-23T00:04:20.905Z,1001.85
2018-09-23T00:05:20.894Z,1001.89
2018-09-23T00:06:20.886Z,1001.89
2018-09-23T00:07:20.874Z,1001.93
2018-09-23T00:08:20.864Z,1001.93
2018-09-23T00:09:20.854Z,1001.92
2018-09-23T00:10:20.841Z,1001.87
2018-09-23T00:11:20.830Z,1001.92
2018-09-23T00:12:20.820Z,1001.92
2018-09-23T00:13:20.809Z,1001.85
2018-09-23T00:14:20.799Z,1001.90
2018-09-23T00:15:20.786Z,1001.89
2018-09-23T00:16:20.775Z,1001.80
2018-09-23T00:17:20.765Z,1001.76
2018-09-23T00:18:20.753Z,1001.72
2018-09-23T00:19:20.742Z,1001.74
2018-09-23T00:20:20.734Z,1001.72
2018-09-23T00:21:20.721Z,1001.71
2018-09-23T00:22:20.816Z,1001.72
2018-09-23T00:23:20.697Z,1001.75
2018-09-23T00:24:20.687Z,1001.71
2018-09-23T00:25:20.681Z,1001.62
2018-09-23T00:26:20.665Z,1001.60
2018-09-23T00:27:20.658Z,1001.56
2018-09-23T00:28:20.646Z,1001.51
2018-09-23T00:29:20.633Z,1001.48
2018-09-23T00:30:20.621Z,1001.48
2018-09-23T00:31:20.610Z,1001.53
2018-09-23T00:32:20.600Z,1001.55
2018-09-23T00:33:20.587Z,1001.55
2018-09-23T00:34:20.578Z,1001.52
2018-09-23T00:35:20.570Z,1001.54
2018-09-23T00:36:20.558Z,1001.52
2018-09-23T00:37:20.546Z,1001.49
2018-09-23T00:38:20.540Z,1001.49
2018-09-23T00:39:20.524Z,1001.50
2018-09-23T00:40:20.514Z,1001.53
2018-09-23T00:41:20.501Z,1001.46
2018-09-23T00:42:20.492Z,1001.48
2018-09-23T00:43:20.479Z,1001.44
2018-09-23T00:44:20.469Z,1001.38
2018-09-23T00:45:20.459Z,1001.34
2018-09-23T00:46:20.446Z,1001.21
2018-09-23T00:47:20.435Z,1001.16
2018-09-23T00:48:20.425Z,1001.15
2018-09-23T00:49:20.414Z,1001.16
2018-09-23T00:50:20.403Z,1001.15
2018-09-23T00:51:20.390Z,1001.15
2018-09-23T00:52:20.379Z,1001.12
2018-09-23T00:53:20.369Z,1001.12
2018-09-23T00:54:20.359Z,1001.11
2018-09-23T00:55:20.350Z,1001.08
2018-09-23T00:56:20.337Z,1001.12
2018-09-23T00:57:20.324Z,1001.16
2018-09-23T00:58:20.319Z,1001.15
2018-09-23T00:59:20.307Z,1001.15
2018-09-23T01:00:20.293Z,1001.14
2018-09-23T01:01:20.282Z,1001.13
2018-09-23T01:02:20.272Z,1001.07
2018-09-23T01:03:20.258Z,1001.03
2018-09-23T01:04:20.249Z,1000.95
2018-09-23T01:05:20.238Z,1000.92
2018-09-23T01:06:20.224Z,1000.87
2018-09-23T01:07:20.214Z,1000.80
2018-09-23T01:08:20.204Z,1000.81
2018-09-23T01:09:20.193Z,1000.77
2018-09-23T01:10:20.183Z,1000.72
2018-09-23T01:11:20.174Z,1000.69
2018-09-23T01:12:20.159Z,1000.64
2018-09-23T01:13:20.153Z,1000.61
2018-09-23T01:14:20.136Z,1000.56
2018-09-23T01:15:20.127Z,1000.51
2018-09-23T01:16:20.167Z,1000.49
2018-09-23T01:17:20.113Z,1000.41
2018-09-23T01:18:20.097Z,1000.40
2018-09-23T01:19:20.083Z,1000.33
2018-09-23T01:20:20.071Z,1000.35
2018-09-23T01:21:20.060Z,1000.31
2018-09-23T01:22:20.048Z,1000.33
2018-09-23T01:23:20.040Z,1000.34
2018-09-23T01:24:20.028Z,1000.28
2018-09-23T01:25:20.017Z,1000.28
2018-09-23T01:26:20.006Z,1000.29
2018-09-23T01:27:19.996Z,1000.22
2018-09-23T01:28:19.983Z,1000.23
2018-09-23T01:29:19.974Z,1000.22
2018-09-23T01:30:19.962Z,1000.29
2018-09-23T01:31:19.951Z,1000.26
2018-09-23T01:32:19.941Z,1000.30
2018-09-23T01:33:19.962Z,1000.26
2018-09-23T01:34:19.917Z,1000.28
2018-09-23T01:35:19.906Z,1000.24
2018-09-23T01:36:19.894Z,1000.21
2018-09-23T01:37:19.883Z,1000.18
2018-09-23T01:38:19.875Z,1000.14
2018-09-23T01:39:19.863Z,1000.09
2018-09-23T01:40:19.851Z,1000.07
2018-09-23T01:41:19.841Z,1000.09
2018-09-23T01:42:19.831Z,999.99
2018-09-23T01:43:19.817Z,1000.03
2018-09-23T01:44:19.815Z,1000.07
2018-09-23T01:45:19.802Z,1000.06
2018-09-23T01:46:19.784Z,1000.10
2018-09-23T01:47:19.773Z,1000.10
2018-09-23T01:48:19.768Z,1000.06
2018-09-23T01:49:19.755Z,1000.04
2018-09-23T01:50:19.740Z,1000.01
2018-09-23T01:51:19.732Z,1000.01
2018-09-23T01:52:19.720Z,999.97
2018-09-23T01:53:19.711Z,999.93
2018-09-23T01:54:19.698Z,999.92
2018-09-23T01:55:19.688Z,999.94
2018-09-23T01:56:19.673Z,999.95
2018-09-23T01:57:19.664Z,999.97
2018-09-23T01:58:19.655Z,999.91
2018-09-23T01:59:19.640Z,999.80
2018-09-23T02:00:19.633Z,999.75
2018-09-23T02:01:19.619Z,999.73
2018-09-23T02:02:19.609Z,999.74
2018-09-23T02:03:19.598Z,999.72
2018-09-23T02:04:19.587Z,999.80
2018-09-23T02:05:19.574Z,999.76
2018-09-23T02:06:19.566Z,999.77
2018-09-23T02:07:19.555Z,999.81
2018-09-23T02:08:19.543Z,999.82
2018-09-23T02:09:19.531Z,999.82
2018-09-23T02:10:19.520Z,999.79
2018-09-23T02:11:19.509Z,999.78
2018-09-23T02:12:19.500Z,999.72
2018-09-23T02:13:19.487Z,999.73
2018-09-23T02:14:19.477Z,999.65
2018-09-23T02:15:19.465Z,999.61
2018-09-23T02:16:19.456Z,999.47
2018-09-23T02:17:19.445Z,999.47
2018-09-23T02:18:19.433Z,999.44
2018-09-23T02:19:19.422Z,999.43
2018-09-23T02:20:19.415Z,999.34
2018-09-23T02:21:19.431Z,999.33
2018-09-23T02:22:19.391Z,999.36
2018-09-23T02:23:19.380Z,999.30
2018-09-23T02:24:19.371Z,999.26
2018-09-23T02:25:19.376Z,999.21
2018-09-23T02:26:19.346Z,999.10
2018-09-23T02:27:19.336Z,999.14
2018-09-23T02:28:19.325Z,999.16
2018-09-23T02:29:19.313Z,999.18
2018-09-23T02:30:19.308Z,999.19
2018-09-23T02:31:19.291Z,999.22
2018-09-23T02:32:19.281Z,999.26
2018-09-23T02:33:19.270Z,999.21
2018-09-23T02:34:19.257Z,999.17
2018-09-23T02:35:19.247Z,999.18
2018-09-23T02:36:19.236Z,999.15
2018-09-23T02:37:19.225Z,999.13
2018-09-23T02:38:19.214Z,999.14
2018-09-23T02:39:19.203Z,999.09
2018-09-23T02:40:19.192Z,999.14
2018-09-23T02:41:19.179Z,999.09
2018-09-23T02:42:19.169Z,999.02
2018-09-23T02:43:19.156Z,999.00
2018-09-23T02:44:19.146Z,998.93
2018-09-23T02:45:19.136Z,998.86
2018-09-23T02:46:19.127Z,998.84
2018-09-23T02:47:19.112Z,998.87
2018-09-23T02:48:19.108Z,998.85
2018-09-23T02:49:19.091Z,998.88
2018-09-23T02:50:19.083Z,998.80
2018-09-23T02:51:19.070Z,998.83
2018-09-23T02:52:19.058Z,998.79
2018-09-23T02:53:19.045Z,998.80
2018-09-23T02:54:19.037Z,998.79
2018-09-23T02:55:19.026Z,998.80
2018-09-23T02:56:19.015Z,998.69
2018-09-23T02:57:19.005Z,998.69
2018-09-23T02:58:18.995Z,998.75
2018-09-23T02:59:18.980Z,998.79
2018-09-23T03:00:18.969Z,998.74
2018-09-23T03:01:18.960Z,998.72
2018-09-23T03:02:18.954Z,998.64
2018-09-23T03:03:18.939Z,998.68
2018-09-23T03:04:18.928Z,998.71
2018-09-23T03:05:18.916Z,998.68
2018-09-23T03:06:18.905Z,998.59
2018-09-23T03:07:18.894Z,998.49
2018-09-23T03:08:18.882Z,998.45
2018-09-23T03:09:18.870Z,998.47
2018-09-23T03:10:18.861Z,998.45
2018-09-23T03:11:18.847Z,998.47
2018-09-23T03:12:18.844Z,998.47
2018-09-23T03:13:18.828Z,998.44
2018-09-23T03:14:18.827Z,998.50
2018-09-23T03:15:18.808Z,998.43
2018-09-23T03:16:18.795Z,998.53
2018-09-23T03:17:18.783Z,998.55
2018-09-23T03:18:18.774Z,998.46
2018-09-23T03:19:18.763Z,998.41
2018-09-23T03:20:18.752Z,998.35
2018-09-23T03:21:18.741Z,998.34
2018-09-23T03:22:18.729Z,998.31
2018-09-23T03:23:18.719Z,998.30
2018-09-23T03:24:18.708Z,998.26
2018-09-23T03:25:18.695Z,998.24
2018-09-23T03:26:18.685Z,998.19
2018-09-23T03:27:18.673Z,998.18
2018-09-23T03:28:18.664Z,998.13
2018-09-23T03:29:18.653Z,998.12
2018-09-23T03:30:18.641Z,998.12
2018-09-23T03:31:18.632Z,998.11
2018-09-23T03:32:18.622Z,998.13
2018-09-23T03:33:18.609Z,998.15
2018-09-23T03:34:18.597Z,998.13
2018-09-23T03:35:18.591Z,998.07
2018-09-23T03:36:18.579Z,998.04
2018-09-23T03:37:18.567Z,998.06
2018-09-23T03:38:18.555Z,998.05
2018-09-23T03:39:18.548Z,998.03
2018-09-23T03:40:18.532Z,998.01
2018-09-23T03:41:18.519Z,998.00
2018-09-23T03:42:18.514Z,997.98
2018-09-23T03:43:18.500Z,997.97
2018-09-23T03:44:18.489Z,997.90
2018-09-23T03:45:18.486Z,997.91
2018-09-23T03:46:18.470Z,997.86
2018-09-23T03:47:18.456Z,997.88
2018-09-23T03:48:18.447Z,997.81
2018-09-23T03:49:18.433Z,997.77
2018-09-23T03:50:18.428Z,997.77
2018-09-23T03:51:18.411Z,997.74
2018-09-23T03:52:18.402Z,997.69
2018-09-23T03:53:18.391Z,997.70
2018-09-23T03:54:18.378Z,997.67
2018-09-23T03:55:18.370Z,997.67
2018-09-23T03:56:18.357Z,997.64
2018-09-23T03:57:18.349Z,997.65
2018-09-23T03:58:18.338Z,997.58
2018-09-23T03:59:18.325Z,997.61
2018-09-23T04:00:18.313Z,997.59
2018-09-23T04:01:18.304Z,997.60
2018-09-23T04:02:18.293Z,997.61
2018-09-23T04:03:18.284Z,997.69
2018-09-23T04:04:18.273Z,997.64
2018-09-23T04:05:18.258Z,997.68
2018-09-23T04:06:18.249Z,997.68
2018-09-23T04:07:18.241Z,997.66
2018-09-23T04:08:18.225Z,997.62
2018-09-23T04:09:18.216Z,997.68
2018-09-23T04:10:18.211Z,997.68
2018-09-23T04:11:18.195Z,997.69
2018-09-23T04:12:18.183Z,997.70
2018-09-23T04:13:18.171Z,997.62
2018-09-23T04:14:18.160Z,997.61
2018-09-23T04:15:18.162Z,997.61
2018-09-23T04:16:18.140Z,997.57
2018-09-23T04:17:18.128Z,997.58
2018-09-23T04:18:18.117Z,997.55
2018-09-23T04:19:18.105Z,997.51
2018-09-23T04:20:18.094Z,997.55
2018-09-23T04:21:18.090Z,997.46
2018-09-23T04:22:18.074Z,997.45
2018-09-23T04:23:18.069Z,997.40
2018-09-23T04:24:18.054Z,997.36
2018-09-23T04:25:18.043Z,997.31
2018-09-23T04:26:18.033Z,997.28
2018-09-23T04:27:18.019Z,997.20
2018-09-23T04:28:18.006Z,997.13
2018-09-23T04:29:17.994Z,997.08
2018-09-23T04:30:17.987Z,997.03
2018-09-23T04:31:17.974Z,996.99
2018-09-23T04:32:17.964Z,996.96
2018-09-23T04:33:17.953Z,996.96
2018-09-23T04:34:17.939Z,997.00
2018-09-23T04:35:17.931Z,997.01
2018-09-23T04:36:17.918Z,997.05
2018-09-23T04:37:17.909Z,997.08
2018-09-23T04:38:17.897Z,997.10
2018-09-23T04:39:17.887Z,997.02
2018-09-23T04:40:17.875Z,997.01
2018-09-23T04:41:17.865Z,996.93
2018-09-23T04:42:17.855Z,996.97
2018-09-23T04:43:17.842Z,996.93
2018-09-23T04:44:17.832Z,996.92
2018-09-23T04:45:17.821Z,996.94
2018-09-23T04:46:17.816Z,996.94
2018-09-23T04:47:17.800Z,996.92
2018-09-23T04:48:17.788Z,996.92
2018-09-23T04:49:17.774Z,996.93
2018-09-23T04:50:17.764Z,996.96
2018-09-23T04:51:17.768Z,996.90
2018-09-23T04:52:17.743Z,996.90
2018-09-23T04:53:17.731Z,996.89
2018-09-23T04:54:17.724Z,996.87
2018-09-23T04:55:17.744Z,996.84
2018-09-23T04:56:17.700Z,996.84
2018-09-23T04:57:17.692Z,996.81
2018-09-23T04:58:17.686Z,996.81
2018-09-23T04:59:17.668Z,996.83
2018-09-23T05:00:17.653Z,996.83
2018-09-23T05:01:17.646Z,996.78
2018-09-23T05:02:17.640Z,996.80
2018-09-23T05:03:17.620Z,996.76
2018-09-23T05:04:17.612Z,996.70
2018-09-23T05:05:17.601Z,996.70
2018-09-23T05:06:17.588Z,996.70
2018-09-23T05:07:17.581Z,996.77
2018-09-23T05:08:17.570Z,996.77
2018-09-23T05:09:17.557Z,996.75
2018-09-23T05:10:17.546Z,996.74
2018-09-23T05:11:17.535Z,996.72
2018-09-23T05:12:17.524Z,996.74
2018-09-23T05:13:17.512Z,996.75
2018-09-23T05:14:17.505Z,996.71
2018-09-23T05:15:17.488Z,996.69
2018-09-23T05:16:17.479Z,996.64
2018-09-23T05:17:17.466Z,996.57
2018-09-23T05:18:17.457Z,996.56
2018-09-23T05:19:17.446Z,996.56
2018-09-23T05:20:17.433Z,996.54
2018-09-23T05:21:17.426Z,996.49
2018-09-23T05:22:17.413Z,996.51
2018-09-23T05:23:17.407Z,996.48
2018-09-23T05:24:17.390Z,996.50
2018-09-23T05:25:17.384Z,996.50
2018-09-23T05:26:17.368Z,996.48
2018-09-23T05:27:17.357Z,996.48
2018-09-23T05:28:17.347Z,996.44
2018-09-23T05:29:17.336Z,996.48
2018-09-23T05:30:17.324Z,996.43
2018-09-23T05:31:17.315Z,996.42
2018-09-23T05:32:17.302Z,996.35
2018-09-23T05:33:17.290Z,996.36
2018-09-23T05:34:17.280Z,996.32
2018-09-23T05:35:17.273Z,996.35
2018-09-23T05:36:17.259Z,996.37
2018-09-23T05:37:17.252Z,996.36
2018-09-23T05:38:17.237Z,996.31
2018-09-23T05:39:17.227Z,996.32
2018-09-23T05:40:17.216Z,996.34
2018-09-23T05:41:17.205Z,996.39
2018-09-23T05:42:17.190Z,996.38
2018-09-23T05:43:17.184Z,996.34
2018-09-23T05:44:17.171Z,996.36
2018-09-23T05:45:17.160Z,996.34
2018-09-23T05:46:17.148Z,996.36
2018-09-23T05:47:17.136Z,996.37
2018-09-23T05:48:17.128Z,996.37
2018-09-23T05:49:17.115Z,996.33
2018-09-23T05:50:17.111Z,996.30
2018-09-23T05:51:17.092Z,996.33
2018-09-23T05:52:17.089Z,996.33
2018-09-23T05:53:17.136Z,996.31
2018-09-23T05:54:17.060Z,996.32
2018-09-23T05:55:17.049Z,996.33
2018-09-23T05:56:17.038Z,996.35
2018-09-23T05:57:17.030Z,996.36
2018-09-23T05:58:17.016Z,996.33
2018-09-23T05:59:17.005Z,996.33
2018-09-23T06:00:16.992Z,996.25
2018-09-23T06:01:16.981Z,996.24
2018-09-23T06:02:16.974Z,996.20
2018-09-23T06:03:17.031Z,996.13
2018-09-23T06:04:16.953Z,996.07
2018-09-23T06:05:16.942Z,996.08
2018-09-23T06:06:16.928Z,996.07
2018-09-23T06:07:16.915Z,996.04
2018-09-23T06:08:16.905Z,996.05
2018-09-23T06:09:16.893Z,996.07
2018-09-23T06:10:16.889Z,996.01
2018-09-23T06:11:16.939Z,996.04
2018-09-23T06:12:16.863Z,996.07
2018-09-23T06:13:16.852Z,996.07
2018-09-23T06:14:16.842Z,996.13
2018-09-23T06:15:16.833Z,996.05
2018-09-23T06:16:16.816Z,996.04
2018-09-23T06:17:16.807Z,996.04
2018-09-23T06:18:16.856Z,996.05
2018-09-23T06:19:16.784Z,995.98
2018-09-23T06:20:16.777Z,996.00
2018-09-23T06:21:16.766Z,996.00
2018-09-23T06:22:16.752Z,996.02
2018-09-23T06:23:16.743Z,996.02
2018-09-23T06:24:16.771Z,995.99
2018-09-23T06:25:16.790Z,995.97
2018-09-23T06:26:16.708Z,995.98
2018-09-23T06:27:16.697Z,996.01
2018-09-23T06:28:16.685Z,995.96
2018-09-23T06:29:16.675Z,995.95
2018-09-23T06:30:16.665Z,995.96
2018-09-23T06:31:16.804Z,995.94
2018-09-23T06:32:16.641Z,995.95
2018-09-23T06:33:16.631Z,995.94
2018-09-23T06:34:16.640Z,995.91
2018-09-23T06:35:16.611Z,995.86
2018-09-23T06:36:16.599Z,995.85
2018-09-23T06:37:16.589Z,995.89
2018-09-23T06:38:16.580Z,995.81
2018-09-23T06:39:16.566Z,995.81
2018-09-23T06:40:16.556Z,995.76
2018-09-23T06:41:16.544Z,995.80
2018-09-23T06:42:16.534Z,995.77
2018-09-23T06:43:16.519Z,995.81
2018-09-23T06:44:16.519Z,995.83
2018-09-23T06:45:16.503Z,995.78
2018-09-23T06:46:16.488Z,995.79
2018-09-23T06:47:16.476Z,995.85
2018-09-23T06:48:16.468Z,995.86
2018-09-23T06:49:16.458Z,995.79
2018-09-23T06:50:16.444Z,995.84
2018-09-23T06:51:16.529Z,995.90
2018-09-23T06:52:16.423Z,995.80
2018-09-23T06:53:16.414Z,995.79
2018-09-23T06:54:16.399Z,995.87
2018-09-23T06:55:16.393Z,995.85
2018-09-23T06:56:16.380Z,995.76
2018-09-23T06:57:16.387Z,995.81
2018-09-23T06:58:16.357Z,995.82
2018-09-23T06:59:16.351Z,995.74
2018-09-23T07:00:16.336Z,995.67
2018-09-23T07:01:16.326Z,995.68
2018-09-23T07:02:16.315Z,995.65
2018-09-23T07:03:16.302Z,995.66
2018-09-23T07:04:16.289Z,995.64
2018-09-23T07:05:16.284Z,995.68
2018-09-23T07:06:16.269Z,995.64
2018-09-23T07:07:16.257Z,995.68
2018-09-23T07:08:16.246Z,995.68
2018-09-23T07:09:16.233Z,995.64
2018-09-23T07:10:16.273Z,995.61
2018-09-23T07:11:16.215Z,995.58
2018-09-23T07:12:16.205Z,995.60
2018-09-23T07:13:16.193Z,995.57
2018-09-23T07:14:16.179Z,995.63
2018-09-23T07:15:16.180Z,995.63
2018-09-23T07:16:16.159Z,995.61
2018-09-23T07:17:16.150Z,995.63
2018-09-23T07:18:16.137Z,995.57
2018-09-23T07:19:16.124Z,995.57
2018-09-23T07:20:16.115Z,995.53
2018-09-23T07:21:16.101Z,995.53
2018-09-23T07:22:16.093Z,995.52
2018-09-23T07:23:16.080Z,995.58
2018-09-23T07:24:16.140Z,995.56
2018-09-23T07:25:16.060Z,995.48
2018-09-23T07:26:16.051Z,995.48
2018-09-23T07:27:16.039Z,995.41
2018-09-23T07:28:16.028Z,995.45
2018-09-23T07:29:16.016Z,995.42
2018-09-23T07:30:16.005Z,995.38
2018-09-23T07:31:15.994Z,995.34
2018-09-23T07:32:15.981Z,995.43
2018-09-23T07:33:15.976Z,995.40
2018-09-23T07:34:15.960Z,995.36
2018-09-23T07:35:15.955Z,995.33
2018-09-23T07:36:15.938Z,995.39
2018-09-23T07:37:15.993Z,995.39
2018-09-23T07:38:15.918Z,995.33
2018-09-23T07:39:15.906Z,995.28
2018-09-23T07:40:15.900Z,995.27
2018-09-23T07:41:15.882Z,995.29
2018-09-23T07:42:15.874Z,995.27
2018-09-23T07:43:15.862Z,995.29
2018-09-23T07:44:15.849Z,995.28
2018-09-23T07:45:15.839Z,995.28
2018-09-23T07:46:15.830Z,995.27
2018-09-23T07:47:15.818Z,995.30
2018-09-23T07:48:15.808Z,995.31
2018-09-23T07:49:15.796Z,995.29
2018-09-23T07:50:15.787Z,995.30
2018-09-23T07:51:15.774Z,995.26
2018-09-23T07:52:15.763Z,995.26
2018-09-23T07:53:15.752Z,995.25
2018-09-23T07:54:15.744Z,995.25
2018-09-23T07:55:15.730Z,995.23
2018-09-23T07:56:15.720Z,995.24
2018-09-23T07:57:15.706Z,995.26
2018-09-23T07:58:15.695Z,995.28
2018-09-23T07:59:15.693Z,995.27
2018-09-23T08:00:15.679Z,995.29
2018-09-23T08:01:15.666Z,995.34
2018-09-23T08:02:15.653Z,995.28
2018-09-23T08:03:15.707Z,995.27
2018-09-23T08:04:15.634Z,995.27
2018-09-23T08:05:15.630Z,995.27
2018-09-23T08:06:15.610Z,995.26
2018-09-23T08:07:15.597Z,995.24
2018-09-23T08:08:15.587Z,995.19
2018-09-23T08:09:15.575Z,995.16
2018-09-23T08:10:15.568Z,995.18
2018-09-23T08:11:15.555Z,995.18
2018-09-23T08:12:15.614Z,995.20
2018-09-23T08:13:15.671Z,995.18
2018-09-23T08:14:16.033Z,995.14
2018-09-23T08:15:15.510Z,995.11
2018-09-23T08:16:15.500Z,995.12
2018-09-23T08:17:15.576Z,995.05
2018-09-23T08:18:15.476Z,995.01
2018-09-23T08:19:15.482Z,995.01
2018-09-23T08:20:15.629Z,995.08
2018-09-23T08:21:15.457Z,995.04
2018-09-23T08:22:15.435Z,995.07
2018-09-23T08:23:15.437Z,995.05
2018-09-23T08:24:15.413Z,995.03
2018-09-23T08:25:15.529Z,995.03
2018-09-23T08:26:15.392Z,995.01
2018-09-23T08:27:15.383Z,995.04
2018-09-23T08:28:15.370Z,995.00
2018-09-23T08:29:15.357Z,995.01
2018-09-23T08:30:15.344Z,995.05
2018-09-23T08:31:15.339Z,994.95
2018-09-23T08:32:15.322Z,994.94
2018-09-23T08:33:15.312Z,994.94
2018-09-23T08:34:15.344Z,994.94
2018-09-23T08:35:15.290Z,994.96
2018-09-23T08:36:15.282Z,994.88
2018-09-23T08:37:15.327Z,994.86
2018-09-23T08:38:15.259Z,994.87
2018-09-23T08:39:15.249Z,994.89
2018-09-23T08:40:15.242Z,994.92
2018-09-23T08:41:15.226Z,994.95
2018-09-23T08:42:15.212Z,994.88
2018-09-23T08:43:15.271Z,994.84
2018-09-23T08:44:15.190Z,994.83
2018-09-23T08:45:15.179Z,994.82
2018-09-23T08:46:15.168Z,994.86
2018-09-23T08:47:15.162Z,994.83
2018-09-23T08:48:15.199Z,994.85
2018-09-23T08:49:15.136Z,994.85
2018-09-23T08:50:15.126Z,994.83
2018-09-23T08:51:15.115Z,994.84
2018-09-23T08:52:15.203Z,994.86
2018-09-23T08:53:15.092Z,994.81
2018-09-23T08:54:15.081Z,994.76
2018-09-23T08:55:15.068Z,994.72
2018-09-23T08:56:15.058Z,994.67
2018-09-23T08:57:15.102Z,994.74
2018-09-23T08:58:15.040Z,994.77
2018-09-23T08:59:15.034Z,994.77
2018-09-23T09:00:15.017Z,994.71
2018-09-23T09:01:15.005Z,994.65
2018-09-23T09:02:14.994Z,994.70
2018-09-23T09:03:14.982Z,994.62
2018-09-23T09:04:14.970Z,994.70
2018-09-23T09:05:14.961Z,994.68
2018-09-23T09:06:14.949Z,994.64
2018-09-23T09:07:14.939Z,994.61
2018-09-23T09:08:14.926Z,994.60
2018-09-23T09:09:14.919Z,994.52
2018-09-23T09:10:14.906Z,994.49
2018-09-23T09:11:14.893Z,994.45
2018-09-23T09:12:14.884Z,994.48
2018-09-23T09:13:14.873Z,994.45
2018-09-23T09:14:14.864Z,994.47
2018-09-23T09:15:14.859Z,994.42
2018-09-23T09:16:14.839Z,994.37
2018-09-23T09:17:14.829Z,994.38
2018-09-23T09:18:14.909Z,994.39
2018-09-23T09:19:14.805Z,994.35
2018-09-23T09:20:14.798Z,994.32
2018-09-23T09:21:14.787Z,994.29
2018-09-23T09:22:14.775Z,994.26
2018-09-23T09:23:14.770Z,994.22
2018-09-23T09:24:14.750Z,994.21
2018-09-23T09:25:14.740Z,994.21
2018-09-23T09:26:14.730Z,994.17
2018-09-23T09:27:14.727Z,994.19
2018-09-23T09:28:14.709Z,994.14
2018-09-23T09:29:14.695Z,994.10
2018-09-23T09:30:14.685Z,994.08
2018-09-23T09:31:14.675Z,994.09
2018-09-23T09:32:14.665Z,994.05
2018-09-23T09:33:14.652Z,994.05
2018-09-23T09:34:14.641Z,994.08
2018-09-23T09:35:14.630Z,994.03
2018-09-23T09:36:14.621Z,993.96
2018-09-23T09:37:14.609Z,993.96
2018-09-23T09:38:14.606Z,993.89
2018-09-23T09:39:14.586Z,993.85
2018-09-23T09:40:14.577Z,993.80
2018-09-23T09:41:14.564Z,993.79
2018-09-23T09:42:14.552Z,993.79
2018-09-23T09:43:14.543Z,993.80
2018-09-23T09:44:14.535Z,993.75
2018-09-23T09:45:14.523Z,993.80
2018-09-23T09:46:14.509Z,993.79
2018-09-23T09:47:14.498Z,993.84
2018-09-23T09:48:14.488Z,993.78
2018-09-23T09:49:14.478Z,993.80
2018-09-23T09:50:14.467Z,993.73
2018-09-23T09:51:14.460Z,993.72
2018-09-23T09:52:14.446Z,993.65
2018-09-23T09:53:14.434Z,993.64
2018-09-23T09:54:14.421Z,993.64
2018-09-23T09:55:14.441Z,993.61
2018-09-23T09:56:14.403Z,993.57
2018-09-23T09:57:14.390Z,993.57
2018-09-23T09:58:14.385Z,993.54
2018-09-23T09:59:14.367Z,993.51
2018-09-23T10:00:14.359Z,993.44
2018-09-23T10:01:14.347Z,993.39
2018-09-23T10:02:14.335Z,993.39
2018-09-23T10:03:14.324Z,993.37
2018-09-23T10:04:14.394Z,993.32
2018-09-23T10:05:14.305Z,993.34
2018-09-23T10:06:14.294Z,993.28
2018-09-23T10:07:14.280Z,993.30
2018-09-23T10:08:14.270Z,993.31
2018-09-23T10:09:14.259Z,993.30
2018-09-23T10:10:14.249Z,993.24
2018-09-23T10:11:14.241Z,993.24
2018-09-23T10:12:14.227Z,993.21
2018-09-23T10:13:14.215Z,993.19
2018-09-23T10:14:14.208Z,993.14
2018-09-23T10:15:14.194Z,993.15
2018-09-23T10:16:14.186Z,993.13
2018-09-23T10:17:14.173Z,993.05
2018-09-23T10:18:14.159Z,992.95
2018-09-23T10:19:14.150Z,992.91
2018-09-23T10:20:14.139Z,992.87
2018-09-23T10:21:14.131Z,992.87
2018-09-23T10:22:14.120Z,992.87
2018-09-23T10:23:14.167Z,992.81
2018-09-23T10:24:14.094Z,992.79
2018-09-23T10:25:14.084Z,992.71
2018-09-23T10:26:14.073Z,992.66
2018-09-23T10:27:14.096Z,992.63
2018-09-23T10:28:14.050Z,992.64
2018-09-23T10:29:14.040Z,992.61
2018-09-23T10:30:14.031Z,992.56
2018-09-23T10:31:14.077Z,992.48
2018-09-23T10:32:14.011Z,992.46
2018-09-23T10:33:14.001Z,992.45
2018-09-23T10:34:13.984Z,992.35
2018-09-23T10:35:13.976Z,992.35
2018-09-23T10:36:14.032Z,992.30
2018-09-23T10:37:13.951Z,992.25
2018-09-23T10:38:13.941Z,992.26
2018-09-23T10:39:13.933Z,992.23
2018-09-23T10:40:13.922Z,992.22
2018-09-23T10:41:13.914Z,992.16
2018-09-23T10:42:13.896Z,992.10
2018-09-23T10:43:13.887Z,992.08
2018-09-23T10:44:13.875Z,992.14
2018-09-23T10:45:13.866Z,992.04
2018-09-23T10:46:13.858Z,992.00
2018-09-23T10:47:13.849Z,991.99
2018-09-23T10:48:13.833Z,991.95
2018-09-23T10:49:13.822Z,991.94
2018-09-23T10:50:13.809Z,991.90
2018-09-23T10:51:13.809Z,991.90
2018-09-23T10:52:13.796Z,991.89
2018-09-23T10:53:13.778Z,991.86
2018-09-23T10:54:13.765Z,991.84
2018-09-23T10:55:13.757Z,991.73
2018-09-23T10:56:13.743Z,991.75
2018-09-23T10:57:13.732Z,991.69
2018-09-23T10:58:13.722Z,991.64
2018-09-23T10:59:13.712Z,991.56
2018-09-23T11:00:13.700Z,991.54
2018-09-23T11:01:13.696Z,991.58
2018-09-23T11:02:13.680Z,991.58
2018-09-23T11:03:13.670Z,991.55
2018-09-23T11:04:13.665Z,991.52
2018-09-23T11:05:13.648Z,991.42
2018-09-23T11:06:13.637Z,991.36
2018-09-23T11:07:13.631Z,991.32
2018-09-23T11:08:13.614Z,991.26
2018-09-23T11:09:13.604Z,991.20
2018-09-23T11:10:13.593Z,991.13
2018-09-23T11:11:13.585Z,991.11
2018-09-23T11:12:13.572Z,991.07
2018-09-23T11:13:13.562Z,991.03
2018-09-23T11:14:13.550Z,991.13
2018-09-23T11:15:13.590Z,991.13
2018-09-23T11:16:13.529Z,991.21
2018-09-23T11:17:13.515Z,991.23
2018-09-23T11:18:13.513Z,991.15
2018-09-23T11:19:13.496Z,991.09
2018-09-23T11:20:13.483Z,991.06
2018-09-23T11:21:13.474Z,991.02
2018-09-23T11:22:13.461Z,990.93
2018-09-23T11:23:13.471Z,990.93
2018-09-23T11:24:13.441Z,990.87
2018-09-23T11:25:13.430Z,990.85
2018-09-23T11:26:13.422Z,990.87
2018-09-23T11:27:13.408Z,990.83
2018-09-23T11:28:13.405Z,990.85
2018-09-23T11:29:13.387Z,990.87
2018-09-23T11:30:13.374Z,990.89
2018-09-23T11:31:13.366Z,990.89
2018-09-23T11:32:13.354Z,990.81
2018-09-23T11:33:13.346Z,990.75
2018-09-23T11:34:13.332Z,990.71
2018-09-23T11:35:13.322Z,990.72
2018-09-23T11:36:13.309Z,990.77
2018-09-23T11:37:13.301Z,990.86
2018-09-23T11:38:13.293Z,990.81
2018-09-23T11:39:13.275Z,990.70
2018-09-23T11:40:13.266Z,990.58
2018-09-23T11:41:13.254Z,990.63
2018-09-23T11:42:13.247Z,990.74
2018-09-23T11:43:13.232Z,990.78
2018-09-23T11:44:13.226Z,990.79
2018-09-23T11:45:13.212Z,990.66
2018-09-23T11:46:13.202Z,990.55
2018-09-23T11:47:13.190Z,990.44
2018-09-23T11:48:13.177Z,990.45
2018-09-23T11:49:13.167Z,990.48
2018-09-23T11:50:13.159Z,990.41
2018-09-23T11:51:13.147Z,990.38
2018-09-23T11:52:13.137Z,990.35
2018-09-23T11:53:13.134Z,990.28
2018-09-23T11:54:13.117Z,990.26
2018-09-23T11:55:13.102Z,990.21
2018-09-23T11:56:13.091Z,990.16
2018-09-23T11:57:13.080Z,990.20
2018-09-23T11:58:13.072Z,990.14
2018-09-23T11:59:13.062Z,990.11
2018-09-23T12:00:13.049Z,990.07
2018-09-23T12:01:13.041Z,990.06
2018-09-23T12:02:13.109Z,990.00
2018-09-23T12:03:13.015Z,990.00
2018-09-23T12:04:13.004Z,989.92
2018-09-23T12:05:12.994Z,989.92
2018-09-23T12:06:12.983Z,989.84
2018-09-23T12:07:12.970Z,989.83
2018-09-23T12:08:12.964Z,989.79
2018-09-23T12:09:12.950Z,989.85
2018-09-23T12:10:12.978Z,989.87
2018-09-23T12:11:12.929Z,989.80
2018-09-23T12:12:12.916Z,989.72
2018-09-23T12:13:12.907Z,989.62
2018-09-23T12:14:12.897Z,989.58
2018-09-23T12:15:12.882Z,989.45
2018-09-23T12:16:12.874Z,989.36
2018-09-23T12:17:12.861Z,989.36
2018-09-23T12:18:12.857Z,989.29
2018-09-23T12:19:12.839Z,989.21
2018-09-23T12:20:12.832Z,989.10
2018-09-23T12:21:12.820Z,989.10
2018-09-23T12:22:12.810Z,989.07
2018-09-23T12:23:12.798Z,989.12
2018-09-23T12:24:12.785Z,989.09
2018-09-23T12:25:12.780Z,989.08